sensor_id;sensor_type;location;lat;lon;timestamp;temperature;humidity
19622;DHT22;9958;33.196;-97.114;2023-01-05T00:01:30;11.60;78.20
19622;DHT22;9958;33.196;-97.114;2023-01-05T00:03:59;11.50;78.90
19622;DHT22;9958;33.196;-97.114;2023-01-05T00:06:27;11.50;79.80
19622;DHT22;9958;33.196;-97.114;2023-01-05T00:08:57;11.40;79.70
19622;DHT22;9958;33.196;-97.114;2023-01-05T00:11:26;11.30;80.30
19622;DHT22;9958;33.196;-97.114;2023-01-05T00:14:13;11.20;80.60
19622;DHT22;9958;33.196;-97.114;2023-01-05T00:16:58;11.10;80.60
19622;DHT22;9958;33.196;-97.114;2023-01-05T00:19:43;11.00;80.90
19622;DHT22;9958;33.196;-97.114;2023-01-05T00:22:30;10.90;81.10
19622;DHT22;9958;33.196;-97.114;2023-01-05T00:25:03;10.80;81.10
19622;DHT22;9958;33.196;-97.114;2023-01-05T00:27:32;10.70;81.90
19622;DHT22;9958;33.196;-97.114;2023-01-05T00:30:01;10.70;81.90
19622;DHT22;9958;33.196;-97.114;2023-01-05T00:32:29;10.60;82.20
19622;DHT22;9958;33.196;-97.114;2023-01-05T00:34:58;10.50;81.40
19622;DHT22;9958;33.196;-97.114;2023-01-05T00:37:30;10.50;83.20
19622;DHT22;9958;33.196;-97.114;2023-01-05T00:40:00;10.40;84.10
19622;DHT22;9958;33.196;-97.114;2023-01-05T00:42:29;10.30;83.20
19622;DHT22;9958;33.196;-97.114;2023-01-05T00:44:57;10.20;82.60
19622;DHT22;9958;33.196;-97.114;2023-01-05T00:47:25;10.20;82.80
19622;DHT22;9958;33.196;-97.114;2023-01-05T00:49:56;10.10;83.60
19622;DHT22;9958;33.196;-97.114;2023-01-05T00:52:26;10.10;84.60
19622;DHT22;9958;33.196;-97.114;2023-01-05T00:54:55;10.00;85.10
19622;DHT22;9958;33.196;-97.114;2023-01-05T00:57:25;9.90;86.30
19622;DHT22;9958;33.196;-97.114;2023-01-05T00:59:56;9.90;86.80
19622;DHT22;9958;33.196;-97.114;2023-01-05T01:02:24;9.80;87.00
19622;DHT22;9958;33.196;-97.114;2023-01-05T01:04:53;9.70;86.60
19622;DHT22;9958;33.196;-97.114;2023-01-05T01:07:21;9.60;85.80
19622;DHT22;9958;33.196;-97.114;2023-01-05T01:09:50;9.60;86.40
19622;DHT22;9958;33.196;-97.114;2023-01-05T01:12:19;9.50;87.40
19622;DHT22;9958;33.196;-97.114;2023-01-05T01:14:52;9.50;87.80
19622;DHT22;9958;33.196;-97.114;2023-01-05T01:17:20;9.50;87.90
19622;DHT22;9958;33.196;-97.114;2023-01-05T01:19:49;9.40;88.90
19622;DHT22;9958;33.196;-97.114;2023-01-05T01:22:17;9.40;88.90
19622;DHT22;9958;33.196;-97.114;2023-01-05T01:24:46;9.30;88.70
19622;DHT22;9958;33.196;-97.114;2023-01-05T01:27:15;9.30;88.50
19622;DHT22;9958;33.196;-97.114;2023-01-05T01:29:44;9.30;88.90
19622;DHT22;9958;33.196;-97.114;2023-01-05T01:32:15;9.30;89.30
19622;DHT22;9958;33.196;-97.114;2023-01-05T01:34:44;9.20;88.60
19622;DHT22;9958;33.196;-97.114;2023-01-05T01:37:15;9.30;88.50
19622;DHT22;9958;33.196;-97.114;2023-01-05T01:39:43;9.30;88.80
19622;DHT22;9958;33.196;-97.114;2023-01-05T01:42:13;9.30;88.40
19622;DHT22;9958;33.196;-97.114;2023-01-05T01:44:59;9.20;88.00
19622;DHT22;9958;33.196;-97.114;2023-01-05T01:47:34;9.20;88.00
19622;DHT22;9958;33.196;-97.114;2023-01-05T01:50:08;9.30;88.60
19622;DHT22;9958;33.196;-97.114;2023-01-05T01:52:38;9.30;88.00
19622;DHT22;9958;33.196;-97.114;2023-01-05T01:55:08;9.20;87.30
19622;DHT22;9958;33.196;-97.114;2023-01-05T01:57:36;9.20;88.20
19622;DHT22;9958;33.196;-97.114;2023-01-05T02:00:08;9.20;87.50
19622;DHT22;9958;33.196;-97.114;2023-01-05T02:02:42;9.20;88.20
19622;DHT22;9958;33.196;-97.114;2023-01-05T02:05:12;9.10;87.40
19622;DHT22;9958;33.196;-97.114;2023-01-05T02:07:44;9.20;87.50
19622;DHT22;9958;33.196;-97.114;2023-01-05T02:10:14;9.10;87.70
19622;DHT22;9958;33.196;-97.114;2023-01-05T02:12:54;9.10;87.40
19622;DHT22;9958;33.196;-97.114;2023-01-05T02:15:33;9.10;87.30
19622;DHT22;9958;33.196;-97.114;2023-01-05T02:18:15;9.00;88.60
19622;DHT22;9958;33.196;-97.114;2023-01-05T02:21:01;9.00;89.10
19622;DHT22;9958;33.196;-97.114;2023-01-05T02:24:05;8.90;88.60
19622;DHT22;9958;33.196;-97.114;2023-01-05T02:27:09;8.90;90.20
19622;DHT22;9958;33.196;-97.114;2023-01-05T02:30:18;8.80;90.10
19622;DHT22;9958;33.196;-97.114;2023-01-05T02:32:58;8.70;90.30
19622;DHT22;9958;33.196;-97.114;2023-01-05T02:35:39;8.60;89.20
19622;DHT22;9958;33.196;-97.114;2023-01-05T02:38:13;8.60;90.70
19622;DHT22;9958;33.196;-97.114;2023-01-05T02:40:44;8.50;90.40
19622;DHT22;9958;33.196;-97.114;2023-01-05T02:43:16;8.50;90.40
19622;DHT22;9958;33.196;-97.114;2023-01-05T02:45:47;8.40;91.00
19622;DHT22;9958;33.196;-97.114;2023-01-05T02:48:17;8.40;90.70
19622;DHT22;9958;33.196;-97.114;2023-01-05T02:50:50;8.30;91.00
19622;DHT22;9958;33.196;-97.114;2023-01-05T02:53:22;8.30;90.60
19622;DHT22;9958;33.196;-97.114;2023-01-05T02:55:53;8.30;90.30
19622;DHT22;9958;33.196;-97.114;2023-01-05T02:58:26;8.20;90.30
19622;DHT22;9958;33.196;-97.114;2023-01-05T03:01:00;8.20;90.00
19622;DHT22;9958;33.196;-97.114;2023-01-05T03:03:35;8.20;90.40
19622;DHT22;9958;33.196;-97.114;2023-01-05T03:06:08;8.20;89.80
19622;DHT22;9958;33.196;-97.114;2023-01-05T03:08:45;8.20;89.60
19622;DHT22;9958;33.196;-97.114;2023-01-05T03:11:14;8.20;89.60
19622;DHT22;9958;33.196;-97.114;2023-01-05T03:14:05;8.20;89.50
19622;DHT22;9958;33.196;-97.114;2023-01-05T03:16:36;8.20;89.50
19622;DHT22;9958;33.196;-97.114;2023-01-05T03:19:10;8.20;89.40
19622;DHT22;9958;33.196;-97.114;2023-01-05T03:21:56;8.20;89.30
19622;DHT22;9958;33.196;-97.114;2023-01-05T03:24:43;8.20;89.60
19622;DHT22;9958;33.196;-97.114;2023-01-05T03:27:29;8.20;89.60
19622;DHT22;9958;33.196;-97.114;2023-01-05T03:30:15;8.10;89.70
19622;DHT22;9958;33.196;-97.114;2023-01-05T03:33:05;8.10;89.50
19622;DHT22;9958;33.196;-97.114;2023-01-05T03:35:56;8.10;89.40
19622;DHT22;9958;33.196;-97.114;2023-01-05T03:38:28;8.10;89.50
19622;DHT22;9958;33.196;-97.114;2023-01-05T03:41:00;8.10;89.80
19622;DHT22;9958;33.196;-97.114;2023-01-05T03:43:33;8.10;90.00
19622;DHT22;9958;33.196;-97.114;2023-01-05T03:46:09;8.00;90.20
19622;DHT22;9958;33.196;-97.114;2023-01-05T03:48:38;8.00;90.10
19622;DHT22;9958;33.196;-97.114;2023-01-05T03:51:08;8.00;90.10
19622;DHT22;9958;33.196;-97.114;2023-01-05T03:53:37;7.90;90.30
19622;DHT22;9958;33.196;-97.114;2023-01-05T03:56:06;7.90;90.50
19622;DHT22;9958;33.196;-97.114;2023-01-05T03:58:34;7.90;90.50
19622;DHT22;9958;33.196;-97.114;2023-01-05T04:01:03;7.80;91.00
19622;DHT22;9958;33.196;-97.114;2023-01-05T04:03:31;7.80;90.90
19622;DHT22;9958;33.196;-97.114;2023-01-05T04:06:00;7.70;90.70
19622;DHT22;9958;33.196;-97.114;2023-01-05T04:08:30;7.70;90.60
19622;DHT22;9958;33.196;-97.114;2023-01-05T04:11:10;7.70;90.70
19622;DHT22;9958;33.196;-97.114;2023-01-05T04:13:39;7.60;90.70
19622;DHT22;9958;33.196;-97.114;2023-01-05T04:16:07;7.60;91.00
19622;DHT22;9958;33.196;-97.114;2023-01-05T04:18:36;7.60;91.40
19622;DHT22;9958;33.196;-97.114;2023-01-05T04:21:05;7.60;91.40
19622;DHT22;9958;33.196;-97.114;2023-01-05T04:23:35;7.50;91.60
19622;DHT22;9958;33.196;-97.114;2023-01-05T04:26:04;7.50;91.50
19622;DHT22;9958;33.196;-97.114;2023-01-05T04:28:32;7.50;92.00
19622;DHT22;9958;33.196;-97.114;2023-01-05T04:31:00;7.40;92.40
19622;DHT22;9958;33.196;-97.114;2023-01-05T04:33:29;7.40;92.20
19622;DHT22;9958;33.196;-97.114;2023-01-05T04:35:57;7.30;92.70
19622;DHT22;9958;33.196;-97.114;2023-01-05T04:38:26;7.30;92.70
19622;DHT22;9958;33.196;-97.114;2023-01-05T04:40:56;7.20;93.10
19622;DHT22;9958;33.196;-97.114;2023-01-05T04:43:24;7.20;93.00
19622;DHT22;9958;33.196;-97.114;2023-01-05T04:45:52;7.10;92.90
19622;DHT22;9958;33.196;-97.114;2023-01-05T04:48:21;7.10;92.80
19622;DHT22;9958;33.196;-97.114;2023-01-05T04:50:52;7.00;93.50
19622;DHT22;9958;33.196;-97.114;2023-01-05T04:53:21;7.00;93.50
19622;DHT22;9958;33.196;-97.114;2023-01-05T04:55:50;6.90;93.30
19622;DHT22;9958;33.196;-97.114;2023-01-05T04:58:20;6.90;93.40
19622;DHT22;9958;33.196;-97.114;2023-01-05T05:00:49;6.90;93.80
19622;DHT22;9958;33.196;-97.114;2023-01-05T05:03:17;6.80;94.30
19622;DHT22;9958;33.196;-97.114;2023-01-05T05:05:46;6.80;94.60
19622;DHT22;9958;33.196;-97.114;2023-01-05T05:08:14;6.70;94.50
19622;DHT22;9958;33.196;-97.114;2023-01-05T05:10:42;6.70;94.40
19622;DHT22;9958;33.196;-97.114;2023-01-05T05:13:11;6.70;94.50
19622;DHT22;9958;33.196;-97.114;2023-01-05T05:15:43;6.60;94.50
19622;DHT22;9958;33.196;-97.114;2023-01-05T05:18:11;6.60;95.00
19622;DHT22;9958;33.196;-97.114;2023-01-05T05:20:41;6.50;95.00
19622;DHT22;9958;33.196;-97.114;2023-01-05T05:23:10;6.50;95.00
19622;DHT22;9958;33.196;-97.114;2023-01-05T05:25:39;6.50;95.40
19622;DHT22;9958;33.196;-97.114;2023-01-05T05:28:07;6.40;95.80
19622;DHT22;9958;33.196;-97.114;2023-01-05T05:30:37;6.40;95.80
19622;DHT22;9958;33.196;-97.114;2023-01-05T05:33:07;6.30;95.60
19622;DHT22;9958;33.196;-97.114;2023-01-05T05:35:35;6.20;96.00
19622;DHT22;9958;33.196;-97.114;2023-01-05T05:38:03;6.20;96.40
19622;DHT22;9958;33.196;-97.114;2023-01-05T05:40:32;6.10;96.70
19622;DHT22;9958;33.196;-97.114;2023-01-05T05:43:00;6.10;96.70
19622;DHT22;9958;33.196;-97.114;2023-01-05T05:45:28;6.00;96.80
19622;DHT22;9958;33.196;-97.114;2023-01-05T05:47:57;6.00;97.30
19622;DHT22;9958;33.196;-97.114;2023-01-05T05:50:28;5.90;97.30
19622;DHT22;9958;33.196;-97.114;2023-01-05T05:52:56;5.90;96.60
19622;DHT22;9958;33.196;-97.114;2023-01-05T05:55:24;5.80;96.90
19622;DHT22;9958;33.196;-97.114;2023-01-05T05:57:53;5.80;97.40
19622;DHT22;9958;33.196;-97.114;2023-01-05T06:00:21;5.80;97.30
19622;DHT22;9958;33.196;-97.114;2023-01-05T06:02:50;5.70;96.80
19622;DHT22;9958;33.196;-97.114;2023-01-05T06:05:18;5.70;96.50
19622;DHT22;9958;33.196;-97.114;2023-01-05T06:07:48;5.70;96.50
19622;DHT22;9958;33.196;-97.114;2023-01-05T06:10:17;5.60;96.50
19622;DHT22;9958;33.196;-97.114;2023-01-05T06:12:45;5.60;97.10
19622;DHT22;9958;33.196;-97.114;2023-01-05T06:15:13;5.60;97.30
19622;DHT22;9958;33.196;-97.114;2023-01-05T06:17:42;5.50;97.20
19622;DHT22;9958;33.196;-97.114;2023-01-05T06:20:10;5.40;97.20
19622;DHT22;9958;33.196;-97.114;2023-01-05T06:22:38;5.40;97.80
19622;DHT22;9958;33.196;-97.114;2023-01-05T06:25:09;5.40;98.20
19622;DHT22;9958;33.196;-97.114;2023-01-05T06:27:38;5.30;98.20
19622;DHT22;9958;33.196;-97.114;2023-01-05T06:30:07;5.30;98.00
19622;DHT22;9958;33.196;-97.114;2023-01-05T06:32:35;5.30;98.30
19622;DHT22;9958;33.196;-97.114;2023-01-05T06:35:04;5.20;99.00
19622;DHT22;9958;33.196;-97.114;2023-01-05T06:37:33;5.20;98.70
19622;DHT22;9958;33.196;-97.114;2023-01-05T06:40:01;5.10;99.10
19622;DHT22;9958;33.196;-97.114;2023-01-05T06:42:31;5.10;99.60
19622;DHT22;9958;33.196;-97.114;2023-01-05T06:45:00;5.10;99.80
19622;DHT22;9958;33.196;-97.114;2023-01-05T06:47:28;5.00;99.70
19622;DHT22;9958;33.196;-97.114;2023-01-05T06:49:56;5.00;99.60
19622;DHT22;9958;33.196;-97.114;2023-01-05T06:52:25;5.00;99.90
19622;DHT22;9958;33.196;-97.114;2023-01-05T06:54:53;5.00;99.90
19622;DHT22;9958;33.196;-97.114;2023-01-05T06:57:21;5.00;99.90
19622;DHT22;9958;33.196;-97.114;2023-01-05T06:59:51;5.00;99.90
19622;DHT22;9958;33.196;-97.114;2023-01-05T07:02:20;5.00;99.90
19622;DHT22;9958;33.196;-97.114;2023-01-05T07:04:48;5.00;99.90
19622;DHT22;9958;33.196;-97.114;2023-01-05T07:07:16;5.00;99.90
19622;DHT22;9958;33.196;-97.114;2023-01-05T07:09:45;5.00;99.90
19622;DHT22;9958;33.196;-97.114;2023-01-05T07:12:15;5.00;99.90
19622;DHT22;9958;33.196;-97.114;2023-01-05T07:14:43;5.00;99.90
19622;DHT22;9958;33.196;-97.114;2023-01-05T07:17:13;4.90;99.90
19622;DHT22;9958;33.196;-97.114;2023-01-05T07:19:42;4.90;99.90
19622;DHT22;9958;33.196;-97.114;2023-01-05T07:22:10;4.90;99.90
19622;DHT22;9958;33.196;-97.114;2023-01-05T07:24:38;4.90;99.90
19622;DHT22;9958;33.196;-97.114;2023-01-05T07:27:07;4.80;99.90
19622;DHT22;9958;33.196;-97.114;2023-01-05T07:29:35;4.80;99.90
19622;DHT22;9958;33.196;-97.114;2023-01-05T07:32:04;4.80;99.90
19622;DHT22;9958;33.196;-97.114;2023-01-05T07:34:34;4.80;99.90
19622;DHT22;9958;33.196;-97.114;2023-01-05T07:37:02;4.70;99.90
19622;DHT22;9958;33.196;-97.114;2023-01-05T07:39:30;4.70;99.90
19622;DHT22;9958;33.196;-97.114;2023-01-05T07:41:59;4.70;99.90
19622;DHT22;9958;33.196;-97.114;2023-01-05T07:44:27;4.60;99.90
19622;DHT22;9958;33.196;-97.114;2023-01-05T07:46:56;4.60;99.90
19622;DHT22;9958;33.196;-97.114;2023-01-05T07:49:24;4.60;99.90
19622;DHT22;9958;33.196;-97.114;2023-01-05T07:51:54;4.60;99.90
19622;DHT22;9958;33.196;-97.114;2023-01-05T07:54:22;4.50;99.90
19622;DHT22;9958;33.196;-97.114;2023-01-05T07:56:51;4.50;99.90
19622;DHT22;9958;33.196;-97.114;2023-01-05T07:59:19;4.50;99.90
19622;DHT22;9958;33.196;-97.114;2023-01-05T08:01:51;4.50;99.90
19622;DHT22;9958;33.196;-97.114;2023-01-05T08:04:20;4.50;99.90
19622;DHT22;9958;33.196;-97.114;2023-01-05T08:06:48;4.50;99.90
19622;DHT22;9958;33.196;-97.114;2023-01-05T08:09:19;4.50;99.90
19622;DHT22;9958;33.196;-97.114;2023-01-05T08:12:04;4.50;99.90
19622;DHT22;9958;33.196;-97.114;2023-01-05T08:14:33;4.40;99.90
19622;DHT22;9958;33.196;-97.114;2023-01-05T08:17:01;4.50;99.90
19622;DHT22;9958;33.196;-97.114;2023-01-05T08:19:30;4.40;99.90
19622;DHT22;9958;33.196;-97.114;2023-01-05T08:21:58;4.40;99.90
19622;DHT22;9958;33.196;-97.114;2023-01-05T08:24:28;4.50;99.90
19622;DHT22;9958;33.196;-97.114;2023-01-05T08:26:56;4.50;99.90
19622;DHT22;9958;33.196;-97.114;2023-01-05T08:29:25;4.50;99.90
19622;DHT22;9958;33.196;-97.114;2023-01-05T08:31:53;4.50;99.90
19622;DHT22;9958;33.196;-97.114;2023-01-05T08:34:21;4.50;99.90
19622;DHT22;9958;33.196;-97.114;2023-01-05T08:36:50;4.50;99.90
19622;DHT22;9958;33.196;-97.114;2023-01-05T08:39:18;4.50;99.90
19622;DHT22;9958;33.196;-97.114;2023-01-05T08:41:48;4.50;99.90
19622;DHT22;9958;33.196;-97.114;2023-01-05T08:44:17;4.50;99.90
19622;DHT22;9958;33.196;-97.114;2023-01-05T08:46:45;4.50;99.90
19622;DHT22;9958;33.196;-97.114;2023-01-05T08:49:13;4.50;99.90
19622;DHT22;9958;33.196;-97.114;2023-01-05T08:51:42;4.50;99.90
19622;DHT22;9958;33.196;-97.114;2023-01-05T08:54:10;4.50;99.90
19622;DHT22;9958;33.196;-97.114;2023-01-05T08:56:38;4.50;99.90
19622;DHT22;9958;33.196;-97.114;2023-01-05T08:59:12;4.60;99.90
19622;DHT22;9958;33.196;-97.114;2023-01-05T09:01:41;4.50;99.90
19622;DHT22;9958;33.196;-97.114;2023-01-05T09:04:09;4.60;99.90
19622;DHT22;9958;33.196;-97.114;2023-01-05T09:06:37;4.60;99.90
19622;DHT22;9958;33.196;-97.114;2023-01-05T09:09:06;4.60;99.90
19622;DHT22;9958;33.196;-97.114;2023-01-05T09:11:35;4.60;99.90
19622;DHT22;9958;33.196;-97.114;2023-01-05T09:14:03;4.60;99.90
19622;DHT22;9958;33.196;-97.114;2023-01-05T09:16:34;4.60;99.90
19622;DHT22;9958;33.196;-97.114;2023-01-05T09:19:02;4.60;99.90
19622;DHT22;9958;33.196;-97.114;2023-01-05T09:21:31;4.60;99.90
19622;DHT22;9958;33.196;-97.114;2023-01-05T09:23:59;4.60;99.90
19622;DHT22;9958;33.196;-97.114;2023-01-05T09:26:27;4.60;99.90
19622;DHT22;9958;33.196;-97.114;2023-01-05T09:28:56;4.60;99.90
19622;DHT22;9958;33.196;-97.114;2023-01-05T09:31:24;4.60;99.90
19622;DHT22;9958;33.196;-97.114;2023-01-05T09:33:55;4.60;99.90
19622;DHT22;9958;33.196;-97.114;2023-01-05T09:36:24;4.60;99.90
19622;DHT22;9958;33.196;-97.114;2023-01-05T09:38:53;4.60;99.90
19622;DHT22;9958;33.196;-97.114;2023-01-05T09:41:24;4.50;99.90
19622;DHT22;9958;33.196;-97.114;2023-01-05T09:43:56;4.50;99.90
19622;DHT22;9958;33.196;-97.114;2023-01-05T09:46:28;4.50;99.90
19622;DHT22;9958;33.196;-97.114;2023-01-05T09:49:00;4.50;99.90
19622;DHT22;9958;33.196;-97.114;2023-01-05T09:51:29;4.50;99.90
19622;DHT22;9958;33.196;-97.114;2023-01-05T09:53:58;4.50;99.90
19622;DHT22;9958;33.196;-97.114;2023-01-05T09:56:29;4.40;99.90
19622;DHT22;9958;33.196;-97.114;2023-01-05T09:59:04;4.40;99.90
19622;DHT22;9958;33.196;-97.114;2023-01-05T10:01:34;4.40;99.90
19622;DHT22;9958;33.196;-97.114;2023-01-05T10:04:09;4.40;99.90
19622;DHT22;9958;33.196;-97.114;2023-01-05T10:06:41;4.40;99.90
19622;DHT22;9958;33.196;-97.114;2023-01-05T10:09:12;4.40;99.90
19622;DHT22;9958;33.196;-97.114;2023-01-05T10:11:46;4.40;99.90
19622;DHT22;9958;33.196;-97.114;2023-01-05T10:14:37;4.40;99.90
19622;DHT22;9958;33.196;-97.114;2023-01-05T10:17:11;4.40;99.90
19622;DHT22;9958;33.196;-97.114;2023-01-05T10:19:42;4.40;99.90
19622;DHT22;9958;33.196;-97.114;2023-01-05T10:22:27;4.40;99.90
19622;DHT22;9958;33.196;-97.114;2023-01-05T10:25:02;4.50;99.90
19622;DHT22;9958;33.196;-97.114;2023-01-05T10:27:36;4.50;99.90
19622;DHT22;9958;33.196;-97.114;2023-01-05T10:30:15;4.50;99.90
19622;DHT22;9958;33.196;-97.114;2023-01-05T10:32:57;4.60;99.90
19622;DHT22;9958;33.196;-97.114;2023-01-05T10:35:41;4.60;99.90
19622;DHT22;9958;33.196;-97.114;2023-01-05T10:38:28;4.60;99.90
19622;DHT22;9958;33.196;-97.114;2023-01-05T10:41:03;4.70;99.90
19622;DHT22;9958;33.196;-97.114;2023-01-05T10:46:35;4.70;99.90
19622;DHT22;9958;33.196;-97.114;2023-01-05T10:49:06;4.70;99.90
19622;DHT22;9958;33.196;-97.114;2023-01-05T10:51:37;4.70;99.90
19622;DHT22;9958;33.196;-97.114;2023-01-05T10:54:06;4.70;99.90
19622;DHT22;9958;33.196;-97.114;2023-01-05T10:56:40;4.70;99.90
19622;DHT22;9958;33.196;-97.114;2023-01-05T10:59:09;4.70;99.90
19622;DHT22;9958;33.196;-97.114;2023-01-05T11:01:42;4.70;99.90
19622;DHT22;9958;33.196;-97.114;2023-01-05T11:04:15;4.80;99.90
19622;DHT22;9958;33.196;-97.114;2023-01-05T11:06:46;4.80;99.90
19622;DHT22;9958;33.196;-97.114;2023-01-05T11:09:18;4.90;99.90
19622;DHT22;9958;33.196;-97.114;2023-01-05T11:11:53;5.00;99.90
19622;DHT22;9958;33.196;-97.114;2023-01-05T11:14:23;5.00;99.90
19622;DHT22;9958;33.196;-97.114;2023-01-05T11:16:54;5.00;99.90
19622;DHT22;9958;33.196;-97.114;2023-01-05T11:19:29;5.10;99.90
19622;DHT22;9958;33.196;-97.114;2023-01-05T11:22:00;5.00;99.90
19622;DHT22;9958;33.196;-97.114;2023-01-05T11:24:30;5.10;99.90
19622;DHT22;9958;33.196;-97.114;2023-01-05T11:26:59;5.10;99.90
19622;DHT22;9958;33.196;-97.114;2023-01-05T11:29:29;5.10;99.90
19622;DHT22;9958;33.196;-97.114;2023-01-05T11:31:59;5.10;99.90
19622;DHT22;9958;33.196;-97.114;2023-01-05T11:34:35;5.10;99.90
19622;DHT22;9958;33.196;-97.114;2023-01-05T11:37:22;5.10;99.90
19622;DHT22;9958;33.196;-97.114;2023-01-05T11:39:53;5.10;99.90
19622;DHT22;9958;33.196;-97.114;2023-01-05T11:42:29;5.00;99.90
19622;DHT22;9958;33.196;-97.114;2023-01-05T11:45:00;5.00;99.90
19622;DHT22;9958;33.196;-97.114;2023-01-05T11:47:32;5.00;99.90
19622;DHT22;9958;33.196;-97.114;2023-01-05T11:50:05;5.00;99.90
19622;DHT22;9958;33.196;-97.114;2023-01-05T11:52:44;4.90;99.90
19622;DHT22;9958;33.196;-97.114;2023-01-05T11:55:29;4.90;99.90
19622;DHT22;9958;33.196;-97.114;2023-01-05T11:58:16;4.80;99.90
19622;DHT22;9958;33.196;-97.114;2023-01-05T12:01:01;4.80;99.90
19622;DHT22;9958;33.196;-97.114;2023-01-05T12:04:00;4.80;99.90
19622;DHT22;9958;33.196;-97.114;2023-01-05T12:06:53;4.70;99.90
19622;DHT22;9958;33.196;-97.114;2023-01-05T12:09:30;4.70;99.90
19622;DHT22;9958;33.196;-97.114;2023-01-05T12:12:15;4.70;99.90
19622;DHT22;9958;33.196;-97.114;2023-01-05T12:15:11;4.60;99.90
19622;DHT22;9958;33.196;-97.114;2023-01-05T12:17:53;4.50;99.90
19622;DHT22;9958;33.196;-97.114;2023-01-05T12:20:35;4.50;99.90
19622;DHT22;9958;33.196;-97.114;2023-01-05T12:23:17;4.40;99.90
19622;DHT22;9958;33.196;-97.114;2023-01-05T12:25:57;4.40;99.90
19622;DHT22;9958;33.196;-97.114;2023-01-05T12:28:42;4.30;99.90
19622;DHT22;9958;33.196;-97.114;2023-01-05T12:31:23;4.20;99.90
19622;DHT22;9958;33.196;-97.114;2023-01-05T12:34:13;4.20;99.90
19622;DHT22;9958;33.196;-97.114;2023-01-05T12:39:58;4.00;99.90
19622;DHT22;9958;33.196;-97.114;2023-01-05T12:42:52;4.00;99.90
19622;DHT22;9958;33.196;-97.114;2023-01-05T12:45:57;3.90;99.90
19622;DHT22;9958;33.196;-97.114;2023-01-05T12:48:32;3.80;99.90
19622;DHT22;9958;33.196;-97.114;2023-01-05T12:51:06;3.80;99.90
19622;DHT22;9958;33.196;-97.114;2023-01-05T12:53:42;3.70;99.90
19622;DHT22;9958;33.196;-97.114;2023-01-05T12:56:20;3.70;99.90
19622;DHT22;9958;33.196;-97.114;2023-01-05T12:59:02;3.60;99.90
19622;DHT22;9958;33.196;-97.114;2023-01-05T13:01:37;3.60;99.90
19622;DHT22;9958;33.196;-97.114;2023-01-05T13:04:23;3.50;99.90
19622;DHT22;9958;33.196;-97.114;2023-01-05T13:06:57;3.50;99.90
19622;DHT22;9958;33.196;-97.114;2023-01-05T13:09:29;3.40;99.90
19622;DHT22;9958;33.196;-97.114;2023-01-05T13:12:03;3.40;99.90
19622;DHT22;9958;33.196;-97.114;2023-01-05T13:14:35;3.30;99.90
19622;DHT22;9958;33.196;-97.114;2023-01-05T13:17:10;3.30;99.90
19622;DHT22;9958;33.196;-97.114;2023-01-05T13:19:43;3.30;99.90
19622;DHT22;9958;33.196;-97.114;2023-01-05T13:22:18;3.20;99.90
19622;DHT22;9958;33.196;-97.114;2023-01-05T13:24:51;3.20;99.90
19622;DHT22;9958;33.196;-97.114;2023-01-05T13:27:24;3.10;99.90
19622;DHT22;9958;33.196;-97.114;2023-01-05T13:29:56;3.10;99.90
19622;DHT22;9958;33.196;-97.114;2023-01-05T13:32:46;3.10;99.90
19622;DHT22;9958;33.196;-97.114;2023-01-05T13:35:34;3.10;99.90
19622;DHT22;9958;33.196;-97.114;2023-01-05T13:47:30;3.00;99.90
19622;DHT22;9958;33.196;-97.114;2023-01-05T13:50:20;3.00;99.90
19622;DHT22;9958;33.196;-97.114;2023-01-05T13:53:09;3.00;99.90
19622;DHT22;9958;33.196;-97.114;2023-01-05T13:55:44;3.00;99.90
19622;DHT22;9958;33.196;-97.114;2023-01-05T13:58:39;3.00;99.90
19622;DHT22;9958;33.196;-97.114;2023-01-05T14:01:11;3.00;99.90
19622;DHT22;9958;33.196;-97.114;2023-01-05T14:03:48;3.10;99.90
19622;DHT22;9958;33.196;-97.114;2023-01-05T14:06:20;3.10;99.90
19622;DHT22;9958;33.196;-97.114;2023-01-05T14:08:54;3.10;99.90
19622;DHT22;9958;33.196;-97.114;2023-01-05T14:11:24;3.10;99.90
19622;DHT22;9958;33.196;-97.114;2023-01-05T14:13:54;3.20;99.90
19622;DHT22;9958;33.196;-97.114;2023-01-05T14:16:47;3.30;99.90
19622;DHT22;9958;33.196;-97.114;2023-01-05T14:19:25;3.30;99.90
19622;DHT22;9958;33.196;-97.114;2023-01-05T14:22:21;3.40;99.90
19622;DHT22;9958;33.196;-97.114;2023-01-05T14:24:50;3.50;99.90
19622;DHT22;9958;33.196;-97.114;2023-01-05T14:27:19;3.60;99.90
19622;DHT22;9958;33.196;-97.114;2023-01-05T14:33:03;3.80;99.90
19622;DHT22;9958;33.196;-97.114;2023-01-05T14:35:34;4.00;99.90
19622;DHT22;9958;33.196;-97.114;2023-01-05T14:38:05;4.10;99.90
19622;DHT22;9958;33.196;-97.114;2023-01-05T14:40:37;4.30;99.90
19622;DHT22;9958;33.196;-97.114;2023-01-05T14:43:21;4.40;99.90
19622;DHT22;9958;33.196;-97.114;2023-01-05T14:45:59;4.60;99.90
19622;DHT22;9958;33.196;-97.114;2023-01-05T14:48:31;4.70;99.90
19622;DHT22;9958;33.196;-97.114;2023-01-05T14:51:17;4.80;99.90
19622;DHT22;9958;33.196;-97.114;2023-01-05T14:53:47;5.00;99.90
19622;DHT22;9958;33.196;-97.114;2023-01-05T14:56:19;5.10;99.90
19622;DHT22;9958;33.196;-97.114;2023-01-05T14:59:16;5.20;99.90
19622;DHT22;9958;33.196;-97.114;2023-01-05T15:01:51;5.40;99.90
19622;DHT22;9958;33.196;-97.114;2023-01-05T15:04:24;5.60;99.90
19622;DHT22;9958;33.196;-97.114;2023-01-05T15:07:13;5.70;99.20
19622;DHT22;9958;33.196;-97.114;2023-01-05T15:13:08;6.00;98.40
19622;DHT22;9958;33.196;-97.114;2023-01-05T15:15:46;6.20;98.30
19622;DHT22;9958;33.196;-97.114;2023-01-05T15:18:37;6.30;97.80
19622;DHT22;9958;33.196;-97.114;2023-01-05T15:21:29;6.50;96.90
19622;DHT22;9958;33.196;-97.114;2023-01-05T15:27:09;6.80;95.60
19622;DHT22;9958;33.196;-97.114;2023-01-05T15:29:51;6.90;95.70
19622;DHT22;9958;33.196;-97.114;2023-01-05T15:32:23;7.10;95.20
19622;DHT22;9958;33.196;-97.114;2023-01-05T15:34:59;7.20;94.30
19622;DHT22;9958;33.196;-97.114;2023-01-05T15:37:32;7.30;94.30
19622;DHT22;9958;33.196;-97.114;2023-01-05T15:40:03;7.40;94.20
19622;DHT22;9958;33.196;-97.114;2023-01-05T15:42:37;7.50;93.90
19622;DHT22;9958;33.196;-97.114;2023-01-05T15:45:17;7.70;93.60
19622;DHT22;9958;33.196;-97.114;2023-01-05T15:47:46;7.80;93.10
19622;DHT22;9958;33.196;-97.114;2023-01-05T15:50:18;7.90;93.00
19622;DHT22;9958;33.196;-97.114;2023-01-05T15:52:52;8.00;92.70
19622;DHT22;9958;33.196;-97.114;2023-01-05T15:55:23;8.20;91.50
19622;DHT22;9958;33.196;-97.114;2023-01-05T15:57:54;8.30;91.10
19622;DHT22;9958;33.196;-97.114;2023-01-05T16:00:24;8.50;91.00
19622;DHT22;9958;33.196;-97.114;2023-01-05T16:02:53;8.60;90.10
19622;DHT22;9958;33.196;-97.114;2023-01-05T16:05:23;8.70;89.30
19622;DHT22;9958;33.196;-97.114;2023-01-05T16:07:54;8.80;88.30
19622;DHT22;9958;33.196;-97.114;2023-01-05T16:10:27;8.90;87.60
19622;DHT22;9958;33.196;-97.114;2023-01-05T16:13:03;9.00;87.20
19622;DHT22;9958;33.196;-97.114;2023-01-05T16:15:34;9.10;87.20
19622;DHT22;9958;33.196;-97.114;2023-01-05T16:18:05;9.20;87.80
19622;DHT22;9958;33.196;-97.114;2023-01-05T16:20:34;9.30;86.20
19622;DHT22;9958;33.196;-97.114;2023-01-05T16:23:09;9.40;85.90
19622;DHT22;9958;33.196;-97.114;2023-01-05T16:25:42;9.50;85.70
19622;DHT22;9958;33.196;-97.114;2023-01-05T16:28:15;9.60;85.90
19622;DHT22;9958;33.196;-97.114;2023-01-05T16:30:45;9.60;85.10
19622;DHT22;9958;33.196;-97.114;2023-01-05T16:33:30;9.70;84.40